Time;durP1;ratioP1;P1;durP2;ratioP2;P2;SDS_P1;SDS_P2;PMS_P1;PMS_P2;Temp;Humidity;BMP_temperature;BMP_pressure;BME280_temperature;BME280_humidity;BME280_pressure;Samples;Min_cycle;Max_cycle;Signal;HPM_P1;HPM_P2
2022/01/31 00:02:19;;;;;;;16.55;7.22;;;;;;;-3.49;75.92;97084.72;5032122;28;20500;-59
2022/01/31 00:04:46;;;;;;;17.90;7.43;;;;;;;-3.44;75.84;97076.44;5032211;28;20056;-60
2022/01/31 00:07:13;;;;;;;16.05;8.32;;;;;;;-3.40;76.13;97076.63;5034676;28;20077;-57
2022/01/31 00:09:42;;;;;;;22.73;10.00;;;;;;;-3.42;75.66;97081.56;5035130;28;20052;-60
2022/01/31 00:12:17;;;;;;;16.92;8.93;;;;;;;-3.46;76.49;97078.66;5035042;28;20412;-59
2022/01/31 00:14:48;;;;;;;22.63;9.70;;;;;;;-3.49;75.94;97078.47;5034867;28;20045;-60
2022/01/31 00:17:15;;;;;;;16.58;9.32;;;;;;;-3.44;75.68;97081.88;5034567;28;20088;-58
2022/01/31 00:19:44;;;;;;;18.05;8.30;;;;;;;-3.42;75.94;97074.22;5035301;28;20145;-59
2022/01/31 00:22:13;;;;;;;22.40;9.82;;;;;;;-3.42;76.13;97063.34;5035103;28;20053;-60
2022/01/31 00:24:40;;;;;;;20.45;7.50;;;;;;;-3.39;75.88;97062.75;5034729;28;20062;-61
2022/01/31 00:27:09;;;;;;;18.70;8.05;;;;;;;-3.31;76.08;97064.75;5034677;28;20527;-59
2022/01/31 00:29:36;;;;;;;22.65;9.38;;;;;;;-3.35;75.41;97058.31;5034769;28;20149;-58
2022/01/31 00:32:03;;;;;;;14.82;7.50;;;;;;;-3.36;75.33;97054.00;5034334;28;20500;-58
2022/01/31 00:34:31;;;;;;;20.52;9.65;;;;;;;-3.37;75.80;97048.84;5034911;28;20136;-59
2022/01/31 00:36:59;;;;;;;18.38;9.57;;;;;;;-3.33;75.91;97056.09;5034318;28;20460;-59
2022/01/31 00:39:26;;;;;;;15.70;8.90;;;;;;;-3.38;75.61;97049.97;5034556;28;20084;-60
2022/01/31 00:41:53;;;;;;;21.45;9.05;;;;;;;-3.36;75.92;97048.56;5034455;28;20531;-59
2022/01/31 00:44:36;;;;;;;73.63;25.88;;;;;;;-3.33;76.42;97050.66;5034848;28;20556;-58
2022/01/31 00:47:15;;;;;;;22.02;9.13;;;;;;;-3.34;75.86;97042.81;5034025;28;20078;-58
2022/01/31 00:49:49;;;;;;;18.17;8.20;;;;;;;-3.33;75.46;97042.50;5033526;28;20053;-59
2022/01/31 00:52:16;;;;;;;15.73;7.68;;;;;;;-3.30;76.24;97043.81;5033211;28;20402;-59
2022/01/31 00:54:44;;;;;;;18.02;7.97;;;;;;;-3.26;75.37;97047.53;5032985;28;20048;-59
2022/01/31 00:57:11;;;;;;;16.98;8.88;;;;;;;-3.27;75.65;97044.00;5034115;28;20049;-60
2022/01/31 00:59:38;;;;;;;18.70;8.15;;;;;;;-3.26;75.98;97051.03;5034759;28;20128;-59
2022/01/31 01:02:05;;;;;;;17.05;8.70;;;;;;;-3.27;75.70;97046.72;5034037;28;20049;-59
2022/01/31 01:04:32;;;;;;;26.05;11.52;;;;;;;-3.23;76.31;97046.94;5033358;28;20128;-59
2022/01/31 01:06:59;;;;;;;18.88;8.88;;;;;;;-3.27;75.58;97043.19;5033687;28;20517;-59
2022/01/31 01:09:26;;;;;;;22.77;10.48;;;;;;;-3.24;75.61;97037.97;5034336;28;20064;-58
2022/01/31 01:11:53;;;;;;;22.35;9.95;;;;;;;-3.23;75.82;97045.00;5033816;28;20053;-58
2022/01/31 01:14:20;;;;;;;19.35;9.43;;;;;;;-3.20;75.53;97036.22;5034405;28;20060;-59
2022/01/31 01:16:47;;;;;;;20.45;8.45;;;;;;;-3.32;76.19;97033.25;5033863;28;20049;-59
2022/01/31 01:19:14;;;;;;;18.58;9.32;;;;;;;-3.24;76.03;97029.00;5033386;28;20111;-59
2022/01/31 01:21:41;;;;;;;20.95;9.88;;;;;;;-3.20;76.10;97038.94;5033951;28;20128;-58
2022/01/31 01:24:08;;;;;;;20.13;8.65;;;;;;;-3.22;75.71;97021.34;5032088;28;20063;-60
2022/01/31 01:26:35;;;;;;;20.00;9.20;;;;;;;-3.16;75.68;97039.16;5033769;28;20056;-59
2022/01/31 01:29:02;;;;;;;19.83;9.75;;;;;;;-3.17;75.73;97035.63;5033242;28;20087;-60
2022/01/31 01:31:30;;;;;;;17.52;8.05;;;;;;;-3.10;75.71;97046.09;5033944;28;20041;-59
2022/01/31 01:33:57;;;;;;;22.55;8.55;;;;;;;-3.10;75.50;97044.19;5033884;28;20497;-59
2022/01/31 01:36:24;;;;;;;25.55;9.75;;;;;;;-3.08;75.72;97052.81;5034075;28;20124;-58
2022/01/31 01:38:51;;;;;;;23.20;9.23;;;;;;;-3.06;75.55;97050.59;5033308;28;20049;-58
2022/01/31 01:41:18;;;;;;;23.17;9.15;;;;;;;-3.04;75.77;97051.09;5033662;28;20115;-61
2022/01/31 01:43:44;;;;;;;18.85;8.43;;;;;;;-3.07;75.37;97050.91;5033529;28;20526;-61
2022/01/31 01:46:12;;;;;;;26.27;12.60;;;;;;;-3.08;74.99;97052.81;5033345;28;20551;-59
2022/01/31 01:48:39;;;;;;;23.50;9.80;;;;;;;-3.12;75.58;97046.38;5032859;28;20136;-59
2022/01/31 01:51:07;;;;;;;20.35;9.95;;;;;;;-3.11;75.03;97048.00;5033673;28;20049;-60
2022/01/31 01:53:34;;;;;;;16.50;7.32;;;;;;;-3.16;75.10;97034.53;5033412;28;20061;-60
2022/01/31 01:56:01;;;;;;;21.33;8.13;;;;;;;-3.15;75.28;97047.00;5028555;28;20052;-60
2022/01/31 01:58:37;;;;;;;21.45;9.18;;;;;;;-3.10;74.71;97043.38;5033163;28;20103;-59
2022/01/31 02:01:05;;;;;;;22.45;9.05;;;;;;;-3.02;75.13;97035.28;5030207;28;20453;-58
2022/01/31 02:03:35;;;;;;;23.65;9.65;;;;;;;-2.99;74.86;97029.22;5032007;28;20049;-59
2022/01/31 02:06:05;;;;;;;18.77;9.48;;;;;;;-2.96;75.04;97034.03;5010903;28;20050;-58
2022/01/31 02:08:43;;;;;;;19.52;8.50;;;;;;;-2.98;75.36;97033.56;5033154;28;20099;-58
2022/01/31 02:11:12;;;;;;;19.40;8.40;;;;;;;-2.94;75.01;97052.78;5030570;28;20096;-59
2022/01/31 02:13:39;;;;;;;17.67;7.53;;;;;;;-2.94;74.87;97037.28;5032723;28;20041;-60
2022/01/31 02:16:08;;;;;;;23.33;9.05;;;;;;;-2.96;74.60;97039.50;5029355;28;20052;-58
2022/01/31 02:18:41;;;;;;;24.45;10.73;;;;;;;-3.00;74.76;97046.66;5033217;28;20050;-56
2022/01/31 02:21:09;;;;;;;23.75;9.95;;;;;;;-2.99;75.17;97040.09;5028388;28;20049;-58
2022/01/31 02:23:35;;;;;;;19.60;9.10;;;;;;;-2.99;74.94;97045.53;5032170;28;20416;-57
2022/01/31 02:26:05;;;;;;;17.58;7.50;;;;;;;-3.08;75.85;97036.50;5032449;28;20049;-56
2022/01/31 02:28:34;;;;;;;21.30;10.48;;;;;;;-3.04;75.85;97048.38;5033155;28;20049;-57
2022/01/31 02:31:03;;;;;;;20.25;9.75;;;;;;;-3.07;75.84;97048.19;5032651;28;20052;-57
2022/01/31 02:33:31;;;;;;;26.83;9.00;;;;;;;-3.07;75.55;97042.75;5032811;28;20554;-57
2022/01/31 02:36:01;;;;;;;22.08;10.80;;;;;;;-3.09;75.84;97034.09;5032293;28;20056;-57
2022/01/31 02:38:29;;;;;;;21.42;7.90;;;;;;;-3.13;76.17;97039.34;5032791;28;20045;-57
2022/01/31 02:40:56;;;;;;;19.17;8.18;;;;;;;-3.11;76.16;97042.56;5031830;28;20084;-56
2022/01/31 02:43:31;;;;;;;24.90;8.55;;;;;;;-3.06;76.04;97050.59;5032358;28;20087;-57
2022/01/31 02:45:59;;;;;;;19.98;8.77;;;;;;;-3.08;76.16;97047.38;5031265;28;20053;-59
2022/01/31 02:48:29;;;;;;;20.88;8.25;;;;;;;-3.06;75.92;97042.44;5025796;28;20471;-55
2022/01/31 02:50:56;;;;;;;20.87;10.30;;;;;;;-3.06;75.97;97045.16;5031796;28;20060;-56
2022/01/31 02:53:30;;;;;;;19.65;8.38;;;;;;;-3.03;75.97;97046.47;5032428;28;20551;-55
2022/01/31 02:56:00;;;;;;;22.50;10.10;;;;;;;-3.00;75.89;97049.38;5031826;28;20084;-60
2022/01/31 02:58:29;;;;;;;21.70;8.80;;;;;;;-3.02;76.29;97040.72;5032714;28;20053;-59
2022/01/31 03:00:57;;;;;;;21.08;8.43;;;;;;;-3.02;75.74;97039.94;5031455;28;20298;-60
2022/01/31 03:03:25;;;;;;;20.40;7.80;;;;;;;-2.96;76.27;97023.16;5032294;28;20052;-59
2022/01/31 03:05:53;;;;;;;19.98;8.75;;;;;;;-2.97;76.08;97032.44;5031323;28;20077;-60
2022/01/31 03:08:20;;;;;;;23.42;8.07;;;;;;;-2.98;75.94;97043.63;5032266;28;20053;-60
2022/01/31 03:10:47;;;;;;;17.63;7.70;;;;;;;-2.99;76.26;97044.75;5031383;28;20076;-58
2022/01/31 03:13:14;;;;;;;26.88;11.90;;;;;;;-3.01;75.84;97039.63;5032050;28;20045;-59
2022/01/31 03:15:41;;;;;;;21.13;8.73;;;;;;;-3.00;76.31;97046.66;5030928;28;20042;-60
2022/01/31 03:18:08;;;;;;;20.63;8.90;;;;;;;-2.98;76.05;97047.16;5032154;28;20423;-60
2022/01/31 03:20:35;;;;;;;17.00;8.85;;;;;;;-2.97;76.30;97035.16;5030009;28;20738;-60
2022/01/31 03:23:02;;;;;;;19.73;9.40;;;;;;;-2.97;76.19;97043.31;5032653;28;20395;-60
2022/01/31 03:25:30;;;;;;;19.75;8.32;;;;;;;-2.96;76.42;97044.94;5031110;28;20493;-59
2022/01/31 03:27:57;;;;;;;20.63;9.00;;;;;;;-2.98;76.03;97040.91;5032108;28;20132;-60
2022/01/31 03:30:24;;;;;;;28.77;8.50;;;;;;;-3.00;76.10;97035.78;5031453;28;20059;-60
2022/01/31 03:32:51;;;;;;;25.05;10.02;;;;;;;-3.02;76.07;97035.28;5030460;28;20420;-59
2022/01/31 03:35:19;;;;;;;19.83;9.00;;;;;;;-2.99;76.72;97048.25;5031457;28;20049;-60
2022/01/31 03:37:46;;;;;;;19.98;9.27;;;;;;;-2.97;76.73;97046.03;5031796;28;20112;-58
2022/01/31 03:40:13;;;;;;;17.95;8.32;;;;;;;-2.99;76.08;97050.97;5031534;28;20103;-59
2022/01/31 03:42:40;;;;;;;21.40;10.15;;;;;;;-2.94;76.16;97047.34;5031366;28;20390;-59
2022/01/31 03:45:10;;;;;;;17.50;7.22;;;;;;;-2.94;76.13;97040.00;5031835;28;20048;-59
2022/01/31 03:47:44;;;;;;;26.25;9.35;;;;;;;-2.92;76.67;97054.09;5022416;28;20053;-60
2022/01/31 03:50:17;;;;;;;20.90;8.05;;;;;;;-2.94;76.27;97040.00;5010756;28;20050;-58
2022/01/31 03:52:44;;;;;;;25.52;8.40;;;;;;;-2.93;76.39;97033.44;5030842;28;20132;-60
2022/01/31 03:55:12;;;;;;;24.77;10.82;;;;;;;-2.88;76.18;97029.78;5031770;28;20046;-57
2022/01/31 03:57:41;;;;;;;24.42;9.32;;;;;;;-2.85;76.43;97031.91;5031361;28;20045;-59
2022/01/31 04:00:10;;;;;;;20.88;9.02;;;;;;;-2.82;76.09;97036.72;5023618;28;20108;-56
2022/01/31 04:02:38;;;;;;;26.50;8.93;;;;;;;-2.78;75.98;97035.00;5030989;28;20057;-58
2022/01/31 04:05:06;;;;;;;25.42;10.40;;;;;;;-2.79;76.33;97042.34;5031479;28;20462;-59
2022/01/31 04:07:33;;;;;;;24.52;9.52;;;;;;;-2.80;76.02;97029.06;5031470;28;20101;-58
2022/01/31 04:10:01;;;;;;;22.67;8.95;;;;;;;-2.78;75.99;97019.47;5031394;28;20049;-59
2022/01/31 04:12:28;;;;;;;26.80;9.40;;;;;;;-2.72;76.01;97029.13;5029907;28;20049;-57
2022/01/31 04:14:55;;;;;;;27.83;8.32;;;;;;;-2.73;75.88;97029.44;5031443;28;20057;-62
2022/01/31 04:17:24;;;;;;;28.25;9.25;;;;;;;-2.72;75.59;97031.84;5031650;28;20252;-59
2022/01/31 04:19:52;;;;;;;18.83;8.65;;;;;;;-2.71;75.43;97019.88;5031483;28;20107;-60
2022/01/31 04:22:20;;;;;;;30.52;12.32;;;;;;;-2.70;76.13;97021.47;5029982;28;20045;-60
2022/01/31 04:24:53;;;;;;;21.90;9.23;;;;;;;-2.71;75.84;97030.75;5026550;28;20053;-59
2022/01/31 04:27:21;;;;;;;23.17;9.77;;;;;;;-2.68;75.87;97029.31;5033341;28;20096;-58
2022/01/31 04:29:49;;;;;;;28.20;11.43;;;;;;;-2.68;75.47;97035.56;5031386;28;20049;-60
2022/01/31 04:32:16;;;;;;;22.20;9.27;;;;;;;-2.73;76.05;97035.69;5034656;28;20085;-58
2022/01/31 04:34:43;;;;;;;25.83;9.60;;;;;;;-2.74;75.81;97028.66;5034814;28;20512;-61
2022/01/31 04:37:10;;;;;;;32.42;11.90;;;;;;;-2.70;76.06;97024.19;5035882;28;20053;-60
2022/01/31 04:39:38;;;;;;;27.73;10.07;;;;;;;-2.69;75.95;97039.38;5034544;28;20053;-59
2022/01/31 04:42:06;;;;;;;23.90;11.00;;;;;;;-2.70;75.87;97029.63;5035213;28;20057;-61
2022/01/31 04:44:35;;;;;;;26.08;10.40;;;;;;;-2.67;75.75;97039.88;5033857;28;20052;-59
2022/01/31 04:47:02;;;;;;;27.02;11.50;;;;;;;-2.72;75.81;97023.69;5035105;28;20175;-58
2022/01/31 04:49:29;;;;;;;25.15;9.95;;;;;;;-2.77;75.74;97037.41;5033493;28;20443;-60
2022/01/31 04:51:56;;;;;;;27.20;11.32;;;;;;;-2.76;76.21;97024.59;5034702;28;20080;-58
2022/01/31 04:54:23;;;;;;;33.03;11.05;;;;;;;-2.74;75.67;97015.03;5032565;28;20101;-59
2022/01/31 04:56:50;;;;;;;26.90;11.82;;;;;;;-2.70;76.08;97021.47;5034705;28;20053;-60
2022/01/31 04:59:18;;;;;;;32.03;11.45;;;;;;;-2.66;76.05;97018.94;5034045;28;20060;-60
2022/01/31 05:01:47;;;;;;;34.30;14.80;;;;;;;-2.61;75.81;97030.50;5033887;28;20067;-60
2022/01/31 05:04:15;;;;;;;30.75;13.52;;;;;;;-2.61;75.46;97033.22;5033724;28;20501;-59
2022/01/31 05:06:44;;;;;;;28.73;11.90;;;;;;;-2.63;75.82;97029.19;5033636;28;20050;-60
2022/01/31 05:09:12;;;;;;;26.40;11.05;;;;;;;-2.63;75.30;97029.97;5033772;28;20132;-60
2022/01/31 05:11:39;;;;;;;30.75;14.23;;;;;;;-2.61;75.64;97035.94;5033768;28;20054;-59
2022/01/31 05:14:06;;;;;;;34.90;12.60;;;;;;;-2.64;75.39;97030.28;5033352;28;20049;-57
2022/01/31 05:16:33;;;;;;;26.95;11.35;;;;;;;-2.65;75.74;97032.22;5033885;28;20041;-62
2022/01/31 05:19:02;;;;;;;30.02;11.02;;;;;;;-2.60;75.90;97029.38;5034219;28;20053;-58
2022/01/31 05:21:29;;;;;;;36.15;11.98;;;;;;;-2.57;75.85;97028.78;5034044;28;20053;-58
2022/01/31 05:23:56;;;;;;;27.23;11.73;;;;;;;-2.50;75.42;97042.75;5033916;28;20064;-58
2022/01/31 05:26:23;;;;;;;30.65;11.73;;;;;;;-2.50;75.49;97026.41;5033197;28;20054;-60
2022/01/31 05:28:51;;;;;;;32.88;12.05;;;;;;;-2.44;75.52;97036.06;5033633;28;20160;-58
2022/01/31 05:31:18;;;;;;;30.67;10.15;;;;;;;-2.40;74.89;97042.47;5033323;28;20045;-61
2022/01/31 05:33:45;;;;;;;23.38;10.00;;;;;;;-2.39;75.49;97040.56;5033947;28;20088;-60
2022/01/31 05:36:12;;;;;;;28.65;12.05;;;;;;;-2.48;75.07;97045.97;5033234;28;20395;-59
2022/01/31 05:38:40;;;;;;;30.00;10.90;;;;;;;-2.49;75.63;97047.06;5033239;28;20065;-59
2022/01/31 05:41:11;;;;;;;34.97;12.45;;;;;;;-2.47;75.33;97042.13;5032998;28;20402;-60
2022/01/31 05:43:38;;;;;;;26.85;9.90;;;;;;;-2.48;75.25;97045.97;5033770;28;20072;-59
2022/01/31 05:46:05;;;;;;;26.58;10.27;;;;;;;-2.45;75.35;97048.06;5029959;28;20099;-62
2022/01/31 05:48:34;;;;;;;31.20;11.23;;;;;;;-2.50;75.27;97040.03;5031835;28;20061;-60
2022/01/31 05:51:02;;;;;;;31.58;11.25;;;;;;;-2.50;75.96;97048.19;5033456;28;20061;-60
2022/01/31 05:53:32;;;;;;;30.05;12.32;;;;;;;-2.46;75.53;97054.59;5033732;28;20136;-60
2022/01/31 05:55:59;;;;;;;25.42;10.98;;;;;;;-2.50;75.68;97042.75;5033340;28;20045;-59
2022/01/31 05:58:26;;;;;;;23.90;9.43;;;;;;;-2.45;75.72;97049.97;5033127;28;20124;-60
2022/01/31 06:00:53;;;;;;;25.85;10.15;;;;;;;-2.46;75.69;97046.44;5031434;28;20060;-61
2022/01/31 06:03:20;;;;;;;31.30;10.20;;;;;;;-2.40;75.40;97047.91;5033028;28;20457;-60
2022/01/31 06:05:47;;;;;;;29.95;10.80;;;;;;;-2.36;75.26;97053.56;5033023;28;20049;-59
2022/01/31 06:08:13;;;;;;;31.55;12.57;;;;;;;-2.34;75.52;97052.13;5032942;28;20500;-59
2022/01/31 06:10:44;;;;;;;28.88;10.55;;;;;;;-2.33;75.57;97059.19;5033202;28;20140;-60
2022/01/31 06:13:11;;;;;;;;;;;;;;;-2.35;75.35;97050.53;5032244;28;20436;-59
2022/01/31 06:15:38;;;;;;;34.80;10.07;;;;;;;-2.35;75.47;97050.53;5032974;28;20040;-58
2022/01/31 06:18:05;;;;;;;32.30;10.88;;;;;;;-2.30;75.58;97055.84;5032765;28;20049;-60
2022/01/31 06:20:32;;;;;;;27.65;12.05;;;;;;;-2.28;75.72;97044.66;5028286;28;20054;-60
2022/01/31 06:22:59;;;;;;;27.88;9.82;;;;;;;-2.31;75.87;97046.06;5031228;28;20136;-59
2022/01/31 06:25:26;;;;;;;25.88;11.23;;;;;;;-2.34;75.53;97041.22;5032479;28;20061;-60
2022/01/31 06:27:53;;;;;;;25.83;9.68;;;;;;;-2.33;75.51;97037.41;5032112;28;20045;-59
2022/01/31 06:30:25;;;;;;;28.88;10.93;;;;;;;-2.30;75.99;97031.34;5032521;28;20052;-58
2022/01/31 06:32:55;;;;;;;25.70;10.43;;;;;;;-2.20;75.76;97030.25;5032492;28;20053;-60
2022/01/31 06:35:23;;;;;;;24.77;9.25;;;;;;;-2.15;75.84;97027.41;5032477;28;20444;-60
2022/01/31 06:37:51;;;;;;;24.15;10.05;;;;;;;-2.09;75.73;97026.16;5032194;28;20053;-60
2022/01/31 06:40:19;;;;;;;31.80;12.75;;;;;;;-2.09;75.21;97034.34;5032876;28;20069;-60
2022/01/31 06:42:47;;;;;;;25.73;10.27;;;;;;;-2.04;75.65;97035.00;5032046;28;20049;-61
2022/01/31 06:45:14;;;;;;;25.60;10.50;;;;;;;-1.99;75.21;97023.97;5032601;28;20053;-59
2022/01/31 06:47:41;;;;;;;26.35;10.57;;;;;;;-1.95;75.50;97019.50;5031868;28;20045;-60
2022/01/31 06:50:09;;;;;;;27.98;10.13;;;;;;;-1.89;75.39;97025.63;5031702;28;20064;-61
2022/01/31 06:52:38;;;;;;;33.80;11.40;;;;;;;-1.90;75.41;97016.66;5031864;28;20096;-61
2022/01/31 06:55:06;;;;;;;36.22;13.27;;;;;;;-1.80;75.40;97021.03;5032136;28;20397;-60
2022/01/31 06:57:35;;;;;;;28.83;10.52;;;;;;;-1.77;75.20;97017.66;5031858;28;20124;-60
2022/01/31 07:00:05;;;;;;;32.22;10.20;;;;;;;-1.77;75.21;97014.94;5031322;28;20085;-61
2022/01/31 07:02:33;;;;;;;22.90;10.32;;;;;;;-1.78;75.24;97017.97;5031868;28;20049;-60
2022/01/31 07:05:00;;;;;;;27.48;10.60;;;;;;;-1.71;75.20;97015.59;5032041;28;20053;-60
2022/01/31 07:07:30;;;;;;;37.38;12.02;;;;;;;-1.64;75.12;97007.75;5032279;28;20073;-60
2022/01/31 07:09:57;;;;;;;33.75;13.57;;;;;;;-1.61;75.01;97024.28;5031315;28;20419;-60
2022/01/31 07:12:31;;;;;;;28.55;11.07;;;;;;;-1.65;75.56;97022.50;5032061;28;20183;-63
2022/01/31 07:15:00;;;;;;;21.08;9.65;;;;;;;-1.65;75.31;97026.03;5031488;28;20056;-61
2022/01/31 07:17:30;;;;;;;29.95;10.45;;;;;;;-1.54;75.12;97029.28;5032243;28;20051;-60
2022/01/31 07:19:57;;;;;;;28.48;10.38;;;;;;;-1.52;75.03;97029.75;5031240;28;20508;-61
2022/01/31 07:22:32;;;;;;;23.48;10.43;;;;;;;-1.50;74.88;97033.78;5031908;28;20122;-60
2022/01/31 07:25:05;;;;;;;28.70;11.05;;;;;;;-1.48;74.97;97028.00;5031199;28;20057;-61
2022/01/31 07:27:33;;;;;;;24.83;9.93;;;;;;;-1.51;75.02;97032.16;5031966;28;20049;-60
2022/01/31 07:30:00;;;;;;;24.23;9.40;;;;;;;-1.55;75.14;97031.19;5031518;28;20136;-61
2022/01/31 07:32:29;;;;;;;26.88;9.52;;;;;;;-1.51;75.34;97036.81;5032018;28;20136;-61
2022/01/31 07:34:57;;;;;;;20.48;9.13;;;;;;;-1.46;75.01;97029.28;5031587;28;20144;-61
2022/01/31 07:37:24;;;;;;;27.98;11.07;;;;;;;-1.34;74.88;97028.66;5032306;28;20059;-60
2022/01/31 07:39:52;;;;;;;27.95;9.57;;;;;;;-1.26;74.88;97031.44;5031116;28;20132;-60
2022/01/31 07:42:19;;;;;;;24.15;9.35;;;;;;;-1.22;74.53;97034.34;5032051;28;20556;-60
2022/01/31 07:44:47;;;;;;;28.45;10.80;;;;;;;-1.25;74.85;97029.53;5031068;28;20412;-61
2022/01/31 07:47:14;;;;;;;37.40;15.80;;;;;;;-1.25;75.14;97034.97;5036672;28;20049;-63
2022/01/31 07:49:41;;;;;;;26.73;10.07;;;;;;;-1.26;75.15;97034.16;5025782;28;20056;-63
2022/01/31 07:52:08;;;;;;;31.08;10.20;;;;;;;-1.27;75.04;97026.31;5031435;28;20512;-63
2022/01/31 07:54:35;;;;;;;26.48;9.82;;;;;;;-1.27;75.31;97026.31;5031031;28;20054;-62
2022/01/31 07:57:02;;;;;;;23.95;10.23;;;;;;;-1.26;75.04;97030.63;5031357;28;20077;-63
2022/01/31 07:59:49;;;;;;;32.47;10.20;;;;;;;-1.28;74.92;97030.16;5031575;28;20501;-63
2022/01/31 08:02:16;;;;;;;24.00;8.80;;;;;;;-1.25;74.99;97024.06;5033817;28;20084;-63
2022/01/31 08:04:43;;;;;;;34.17;11.38;;;;;;;-1.24;75.08;97042.03;5035184;28;20053;-63
2022/01/31 08:07:10;;;;;;;32.70;12.25;;;;;;;-1.26;75.21;97033.34;5035694;28;20048;-62
2022/01/31 08:09:37;;;;;;;35.35;10.95;;;;;;;-1.23;74.73;97049.06;5034639;28;20076;-64
2022/01/31 08:12:05;;;;;;;49.70;18.67;;;;;;;-1.20;74.80;97026.63;5033822;28;20045;-62
2022/01/31 08:14:32;;;;;;;31.83;12.75;;;;;;;-1.14;74.87;97030.81;5034705;28;20053;-63
2022/01/31 08:16:59;;;;;;;30.70;11.65;;;;;;;-1.14;74.96;97033.53;5035079;28;20594;-63
2022/01/31 08:19:26;;;;;;;31.13;10.32;;;;;;;-1.15;74.90;97023.75;5035604;28;20049;-63
2022/01/31 08:22:07;;;;;;;25.27;9.90;;;;;;;-1.10;75.06;97020.88;5031806;28;20049;-63
2022/01/31 08:24:34;;;;;;;33.25;11.02;;;;;;;-1.04;74.80;97034.03;5034651;28;20401;-64
2022/01/31 08:27:01;;;;;;;35.83;11.65;;;;;;;-1.00;74.40;97035.03;5035437;28;20132;-63
2022/01/31 08:29:36;;;;;;;31.05;14.63;;;;;;;-0.98;74.60;97035.47;5035154;28;20045;-63
2022/01/31 08:32:08;;;;;;;30.58;12.60;;;;;;;-1.04;74.56;97038.69;5034646;28;20111;-63
2022/01/31 08:37:22;;;;;;;35.65;11.65;;;;;;;-1.03;74.55;97043.03;5033613;28;20053;-63
2022/01/31 08:39:49;;;;;;;33.10;11.35;;;;;;;-1.05;74.51;97034.34;5034357;28;20077;-63
2022/01/31 08:42:16;;;;;;;37.17;12.95;;;;;;;-1.09;74.83;97036.13;5034840;28;20060;-63
2022/01/31 08:44:46;;;;;;;33.88;11.93;;;;;;;-1.13;74.99;97037.88;5032699;28;20512;-63
2022/01/31 08:47:12;;;;;;;27.38;11.50;;;;;;;-1.13;74.74;97037.88;5032148;28;20463;-63
2022/01/31 08:49:39;;;;;;;51.13;17.55;;;;;;;-1.09;74.88;97033.38;5034434;28;20053;-63
2022/01/31 08:52:07;;;;;;;57.25;15.77;;;;;;;-1.06;75.13;97032.75;5033531;28;20088;-63
2022/01/31 08:54:34;;;;;;;29.95;11.60;;;;;;;-1.03;74.54;97032.94;5034479;28;20132;-63
2022/01/31 08:57:01;;;;;;;35.47;13.35;;;;;;;-0.95;74.64;97026.66;5034218;28;20128;-63
2022/01/31 08:59:29;;;;;;;38.67;14.38;;;;;;;-1.02;74.79;97033.72;5034563;28;20049;-62
2022/01/31 09:02:10;;;;;;;40.80;14.90;;;;;;;-1.15;75.03;97029.22;5034013;28;20059;-62
2022/01/31 09:05:11;;;;;;;40.88;13.45;;;;;;;-1.18;74.89;97019.75;5034279;28;20053;-63
2022/01/31 09:07:30;;;;;;;30.73;11.27;;;;;;;-1.09;74.93;97036.13;5032740;28;20053;-60
2022/01/31 09:10:00;;;;;;;37.72;13.85;;;;;;;-1.03;74.60;97023.94;5033825;28;20053;-59
2022/01/31 09:12:30;;;;;;;38.58;14.90;;;;;;;-0.98;75.17;97019.09;5034028;28;20456;-57
2022/01/31 09:14:57;;;;;;;;;;;;;;;-1.00;74.79;97026.03;5033672;28;20117;-58
2022/01/31 09:17:25;;;;;;;43.03;13.50;;;;;;;-1.06;74.89;97030.84;5034038;28;19924;-58
2022/01/31 09:19:52;;;;;;;39.38;12.93;;;;;;;-1.06;74.98;97025.38;5033768;28;20065;-57
2022/01/31 09:22:19;;;;;;;38.70;15.73;;;;;;;-0.99;74.56;97027.63;5034229;28;20508;-58
2022/01/31 09:24:46;;;;;;;47.33;18.58;;;;;;;-1.06;75.17;97022.66;5033611;28;20123;-60
2022/01/31 09:27:13;;;;;;;36.35;11.63;;;;;;;-1.16;75.00;97011.25;5033984;28;20053;-64
2022/01/31 09:29:41;;;;;;;54.97;20.88;;;;;;;-1.19;75.31;97022.81;5033945;28;20144;-63
2022/01/31 09:32:10;;;;;;;49.17;14.80;;;;;;;-1.21;75.24;97020.38;5033755;28;20509;-63
2022/01/31 09:34:37;;;;;;;50.05;16.27;;;;;;;-1.20;75.16;97021.16;5033722;28;20394;-63
2022/01/31 09:37:05;;;;;;;37.35;13.02;;;;;;;-1.19;75.35;97017.34;5033517;28;20400;-65
2022/01/31 09:39:32;;;;;;;45.10;16.73;;;;;;;-1.25;75.32;97024.84;5032689;28;20496;-63
2022/01/31 09:42:10;;;;;;;46.25;16.85;;;;;;;-1.29;75.72;97012.19;5033514;28;20049;-64
2022/01/31 09:44:49;;;;;;;49.88;16.30;;;;;;;-1.29;75.40;97017.63;5033386;28;20054;-63
2022/01/31 09:49:47;;;;;;;39.92;12.98;;;;;;;-1.29;75.54;97028.53;5033709;28;20054;-60
2022/01/31 09:52:14;;;;;;;47.00;14.90;;;;;;;-1.24;75.54;97025.66;5033493;28;20057;-61
2022/01/31 09:54:42;;;;;;;43.00;15.55;;;;;;;-1.15;75.32;97021.84;5033535;28;20053;-60
2022/01/31 09:57:09;;;;;;;51.95;16.75;;;;;;;-1.06;75.01;97027.31;5032779;28;20412;-62
2022/01/31 09:59:36;;;;;;;47.28;15.32;;;;;;;-1.02;75.07;97020.06;5033062;28;20508;-61
2022/01/31 10:02:10;;;;;;;51.42;15.38;;;;;;;-0.98;75.27;97026.50;5032718;28;20416;-61
2022/01/31 10:04:43;;;;;;;64.47;21.30;;;;;;;-1.09;75.32;97017.84;5033423;28;20041;-60
2022/01/31 10:07:10;;;;;;;50.35;16.00;;;;;;;-1.04;75.06;97019.59;5032529;28;20121;-60
2022/01/31 10:09:37;;;;;;;49.13;16.25;;;;;;;-0.97;75.12;97014.47;5033166;28;20151;-60
2022/01/31 10:12:18;;;;;;;45.03;14.57;;;;;;;-0.90;75.09;97012.88;5032670;28;20053;-61
2022/01/31 10:17:35;;;;;;;43.15;16.00;;;;;;;-0.87;74.93;97005.97;5032661;28;20128;-61
2022/01/31 10:20:25;;;;;;;55.45;22.58;;;;;;;-0.97;75.04;97003.56;5032146;28;20084;-62
2022/01/31 10:22:52;;;;;;;50.22;16.40;;;;;;;-0.99;75.18;97022.97;5031810;28;20053;-63
2022/01/31 10:25:22;;;;;;;48.22;18.40;;;;;;;-1.00;75.30;97009.66;5031847;28;20100;-63
2022/01/31 10:28:13;;;;;;;50.05;15.52;;;;;;;-1.05;75.67;97013.34;5033187;28;20053;-63
2022/01/31 10:30:40;;;;;;;58.10;21.27;;;;;;;-1.10;75.67;97012.69;5032078;28;20053;-64
2022/01/31 10:33:09;;;;;;;53.03;16.50;;;;;;;-1.14;75.47;97011.72;5032657;28;20079;-64
2022/01/31 10:35:39;;;;;;;54.08;18.20;;;;;;;-1.18;75.54;96997.94;5030693;28;20057;-62
2022/01/31 10:38:14;;;;;;;51.95;16.73;;;;;;;-1.21;75.82;97014.13;5032844;28;20107;-63
2022/01/31 10:44:46;;;;;;;46.95;14.88;;;;;;;-1.14;75.66;97011.72;5031972;28;20479;-63
2022/01/31 10:52:28;;;;;;;41.15;13.75;;;;;;;-1.10;75.91;96999.84;5032057;28;20558;-62
2022/01/31 10:55:12;;;;;;;48.00;15.00;;;;;;;-1.07;75.50;97004.66;5032499;28;20099;-63
2022/01/31 10:57:39;;;;;;;65.93;16.73;;;;;;;-1.16;76.15;97001.13;5029155;28;20077;-64
2022/01/31 11:00:07;;;;;;;41.10;14.88;;;;;;;-1.06;75.98;96997.28;5011523;28;20416;-63
2022/01/31 11:02:36;;;;;;;56.83;14.93;;;;;;;-0.96;75.96;96991.50;5031928;28;20049;-64
2022/01/31 11:05:04;;;;;;;39.10;13.40;;;;;;;-0.88;75.88;96990.72;5032090;28;20452;-63
2022/01/31 11:07:31;;;;;;;55.80;19.42;;;;;;;-0.86;75.94;96983.03;5032147;28;20041;-63
2022/01/31 11:09:59;;;;;;;46.58;16.05;;;;;;;-0.84;76.06;96976.09;5032183;28;20132;-63
2022/01/31 11:12:27;;;;;;;50.50;15.57;;;;;;;-0.81;75.79;96974.66;5031838;28;20064;-63
2022/01/31 11:14:56;;;;;;;47.83;15.13;;;;;;;-0.75;76.00;96978.81;5032222;28;20389;-64
2022/01/31 11:17:24;;;;;;;45.53;14.25;;;;;;;-0.73;75.56;96977.41;5031865;28;20107;-63
2022/01/31 11:19:57;;;;;;;40.28;14.27;;;;;;;-0.66;75.55;96987.81;5032363;28;20041;-63
2022/01/31 11:22:31;;;;;;;44.88;16.90;;;;;;;-0.67;75.71;96986.22;5031576;28;20527;-63
2022/01/31 11:25:16;;;;;;;48.78;15.95;;;;;;;-0.73;76.10;96982.03;5031906;28;20061;-64
2022/01/31 11:27:52;;;;;;;51.08;16.48;;;;;;;-0.79;76.02;96981.41;5029660;28;20053;-63
2022/01/31 11:30:20;;;;;;;43.28;14.68;;;;;;;-0.82;76.39;96983.97;5031378;28;20468;-63
2022/01/31 11:32:48;;;;;;;48.40;16.42;;;;;;;-0.86;76.28;96983.81;5031138;28;20056;-64
2022/01/31 11:35:16;;;;;;;41.70;15.10;;;;;;;-0.92;76.73;96981.56;5031531;28;20049;-60
2022/01/31 11:37:43;;;;;;;45.60;15.20;;;;;;;-0.97;76.31;96976.28;5027254;28;20128;-58
2022/01/31 11:40:13;;;;;;;44.13;16.30;;;;;;;-0.99;76.57;96997.59;5031440;28;20049;-60
2022/01/31 11:42:44;;;;;;;42.40;14.88;;;;;;;-0.96;76.44;96983.31;5031636;28;20512;-58
2022/01/31 11:45:19;;;;;;;38.13;13.65;;;;;;;-0.98;76.51;96980.91;5031412;28;20056;-60
2022/01/31 11:47:49;;;;;;;39.03;14.13;;;;;;;-0.96;76.75;96980.59;5020095;28;20128;-55